createdAt,value
2024-02-19T00:02:14.503Z,3.77
2024-02-19T00:04:41.258Z,3.51
2024-02-19T00:07:08.058Z,3.43
2024-02-19T00:09:34.757Z,3.22
2024-02-19T00:12:01.430Z,2.98
2024-02-19T00:14:28.048Z,2.76
2024-02-19T00:16:54.760Z,2.61
2024-02-19T00:19:21.626Z,2.45
2024-02-19T00:21:48.420Z,2.38
2024-02-19T00:24:16.196Z,2.38
2024-02-19T00:26:42.741Z,2.33
2024-02-19T00:29:09.305Z,2.31
2024-02-19T00:31:35.807Z,2.29
2024-02-19T00:34:02.572Z,2.28
2024-02-19T00:36:29.298Z,2.18
2024-02-19T00:38:55.990Z,2.13
2024-02-19T00:41:22.702Z,2.18
2024-02-19T00:43:49.343Z,2.18
2024-02-19T00:46:15.981Z,2.21
2024-02-19T00:48:42.658Z,2.29
2024-02-19T00:51:09.277Z,2.31
2024-02-19T00:53:35.863Z,2.36
2024-02-19T00:56:02.429Z,2.46
2024-02-19T00:58:29.065Z,2.55
2024-02-19T01:00:55.812Z,2.49
2024-02-19T01:03:22.548Z,2.45
2024-02-19T01:05:49.307Z,2.50
2024-02-19T01:08:15.915Z,2.54
2024-02-19T01:10:42.634Z,2.66
2024-02-19T01:13:09.504Z,2.82
2024-02-19T01:15:36.206Z,2.98
2024-02-19T01:18:02.967Z,3.10
2024-02-19T01:20:29.652Z,3.28
2024-02-19T01:22:56.284Z,3.42
2024-02-19T01:25:22.937Z,3.30
2024-02-19T01:27:49.613Z,3.25
2024-02-19T01:30:16.518Z,3.27
2024-02-19T01:32:43.197Z,3.28
2024-02-19T01:35:10.396Z,3.24
2024-02-19T01:37:37.503Z,3.30
2024-02-19T01:40:04.790Z,3.35
2024-02-19T01:42:31.406Z,3.39
2024-02-19T01:44:58.006Z,3.38
2024-02-19T01:47:24.719Z,3.43
2024-02-19T01:49:51.476Z,3.47
2024-02-19T01:52:18.844Z,3.58
2024-02-19T01:54:45.632Z,3.62
2024-02-19T01:57:12.650Z,3.62
2024-02-19T01:59:40.752Z,3.62
2024-02-19T02:02:07.449Z,3.55
2024-02-19T02:04:34.043Z,3.51
2024-02-19T02:07:00.914Z,3.54
2024-02-19T02:09:27.874Z,3.60
2024-02-19T02:11:54.528Z,3.67
2024-02-19T02:14:21.278Z,3.72
2024-02-19T02:16:47.937Z,3.73
2024-02-19T02:19:14.851Z,3.74
2024-02-19T02:21:42.008Z,3.85
2024-02-19T02:24:08.771Z,3.86
2024-02-19T02:26:41.531Z,3.80
2024-02-19T02:29:08.469Z,3.76
2024-02-19T02:31:35.437Z,3.72
2024-02-19T02:34:02.296Z,3.68
2024-02-19T02:36:29.049Z,3.69
2024-02-19T02:38:55.782Z,3.72
2024-02-19T02:41:22.536Z,3.72
2024-02-19T02:43:49.132Z,3.74
2024-02-19T02:46:15.767Z,3.71
2024-02-19T02:48:42.649Z,3.72
2024-02-19T02:51:09.552Z,3.72
2024-02-19T02:53:36.163Z,3.80
2024-02-19T02:56:02.710Z,3.92
2024-02-19T02:58:29.337Z,4.03
2024-02-19T03:00:56.034Z,4.12
2024-02-19T03:03:22.737Z,4.12
2024-02-19T03:05:49.532Z,4.15
2024-02-19T03:08:16.106Z,4.21
2024-02-19T03:10:42.736Z,4.33
2024-02-19T03:13:09.394Z,4.29
2024-02-19T03:15:36.025Z,4.20
2024-02-19T03:18:03.232Z,4.12
2024-02-19T03:20:29.956Z,4.09
2024-02-19T03:22:56.664Z,4.17
2024-02-19T03:25:23.461Z,4.32
2024-02-19T03:27:50.244Z,4.42
2024-02-19T03:30:17.301Z,4.44
2024-02-19T03:32:43.977Z,4.47
2024-02-19T03:35:10.620Z,4.50
2024-02-19T03:37:37.271Z,4.47
2024-02-19T03:40:04.211Z,4.44
2024-02-19T03:42:30.821Z,4.38
2024-02-19T03:44:57.434Z,4.35
2024-02-19T03:47:24.017Z,4.33
2024-02-19T03:49:50.722Z,4.31
2024-02-19T03:52:17.483Z,4.33
2024-02-19T03:54:44.194Z,4.38
2024-02-19T03:57:10.863Z,4.39
2024-02-19T03:59:37.505Z,4.40
2024-02-19T04:02:04.294Z,4.39
2024-02-19T04:04:31.074Z,4.40
2024-02-19T04:06:57.959Z,4.38
2024-02-19T04:09:24.649Z,4.42
2024-02-19T04:11:51.296Z,4.40
2024-02-19T04:14:17.996Z,4.37
2024-02-19T04:16:44.670Z,4.34
2024-02-19T04:19:11.383Z,4.32
2024-02-19T04:21:44.612Z,4.36
2024-02-19T04:24:11.348Z,4.36
2024-02-19T04:26:38.517Z,4.35
2024-02-19T04:29:05.126Z,4.40
2024-02-19T04:31:31.789Z,4.40
2024-02-19T04:33:58.616Z,4.40
2024-02-19T04:36:25.290Z,4.37
2024-02-19T04:38:51.944Z,4.41
2024-02-19T04:41:18.505Z,4.46
2024-02-19T04:43:45.167Z,4.50
2024-02-19T04:46:11.764Z,4.52
2024-02-19T04:48:38.596Z,4.58
2024-02-19T04:51:06.206Z,4.67
2024-02-19T04:53:32.852Z,4.75
2024-02-19T04:55:59.741Z,4.84
2024-02-19T04:58:26.468Z,4.81
2024-02-19T05:00:53.293Z,4.80
2024-02-19T05:03:19.994Z,4.89
2024-02-19T05:05:46.565Z,4.84
2024-02-19T05:08:13.321Z,4.73
2024-02-19T05:10:39.974Z,4.72
2024-02-19T05:13:06.641Z,4.67
2024-02-19T05:15:33.241Z,4.67
2024-02-19T05:17:59.901Z,4.66
2024-02-19T05:20:26.611Z,4.68
2024-02-19T05:22:53.288Z,4.67
2024-02-19T05:25:19.967Z,4.72
2024-02-19T05:27:46.656Z,4.83
2024-02-19T05:30:21.413Z,4.87
2024-02-19T05:32:48.045Z,5.02
2024-02-19T05:35:14.845Z,5.02
2024-02-19T05:37:41.492Z,5.01
2024-02-19T05:40:08.947Z,4.97
2024-02-19T05:42:35.559Z,4.99
2024-02-19T05:45:02.174Z,5.04
2024-02-19T05:47:31.762Z,5.09
2024-02-19T05:49:58.396Z,5.06
2024-02-19T05:52:25.123Z,5.04
2024-02-19T05:54:51.726Z,4.99
2024-02-19T05:57:18.531Z,4.96
2024-02-19T05:59:45.153Z,5.04
2024-02-19T06:02:11.953Z,5.07
2024-02-19T06:04:38.806Z,5.06
2024-02-19T06:07:05.564Z,5.07
2024-02-19T06:09:32.238Z,5.14
2024-02-19T06:11:58.883Z,5.14
2024-02-19T06:14:25.536Z,5.15
2024-02-19T06:16:52.092Z,5.21
2024-02-19T06:19:18.874Z,5.30
2024-02-19T06:21:45.543Z,5.37
2024-02-19T06:24:12.269Z,5.42
2024-02-19T06:26:38.892Z,5.36
2024-02-19T06:29:05.459Z,5.28
2024-02-19T06:31:32.061Z,5.23
2024-02-19T06:33:59.025Z,5.27
2024-02-19T06:36:25.784Z,5.39
2024-02-19T06:38:52.549Z,5.40
2024-02-19T06:41:19.279Z,5.38
2024-02-19T06:43:45.862Z,5.42
2024-02-19T06:46:13.231Z,5.47
2024-02-19T06:48:42.959Z,5.46
2024-02-19T06:51:09.651Z,5.42
2024-02-19T06:53:36.250Z,5.43
2024-02-19T06:56:02.961Z,5.38
2024-02-19T06:58:29.772Z,5.35
2024-02-19T07:00:56.610Z,5.47
2024-02-19T07:03:23.279Z,5.45
2024-02-19T07:05:49.948Z,5.45
2024-02-19T07:08:16.589Z,5.59
2024-02-19T07:10:43.303Z,5.64
2024-02-19T07:13:10.137Z,5.56
2024-02-19T07:15:36.689Z,5.53
2024-02-19T07:18:03.461Z,5.47
2024-02-19T07:20:30.137Z,5.47
2024-02-19T07:22:56.728Z,5.62
2024-02-19T07:25:23.358Z,5.68
2024-02-19T07:27:50.107Z,5.63
2024-02-19T07:30:16.790Z,5.61
2024-02-19T07:32:43.518Z,5.67
2024-02-19T07:35:10.267Z,5.75
2024-02-19T07:37:37.061Z,5.85
2024-02-19T07:40:04.131Z,5.96
2024-02-19T07:42:30.733Z,6.06
2024-02-19T07:44:57.266Z,6.00
2024-02-19T07:47:23.919Z,5.95
2024-02-19T07:49:50.536Z,5.94
2024-02-19T07:52:17.436Z,5.90
2024-02-19T07:54:44.110Z,5.94
2024-02-19T07:57:10.694Z,5.91
2024-02-19T07:59:37.312Z,6.03
2024-02-19T08:02:05.428Z,6.03
2024-02-19T08:04:32.409Z,6.05
2024-02-19T08:07:01.280Z,6.10
2024-02-19T08:09:28.598Z,6.07
2024-02-19T08:11:55.833Z,6.08
2024-02-19T08:14:22.742Z,6.09
2024-02-19T08:16:50.166Z,6.14
2024-02-19T08:19:17.461Z,6.15
2024-02-19T08:21:44.371Z,6.19
2024-02-19T08:24:11.009Z,6.31
2024-02-19T08:26:37.576Z,6.41
2024-02-19T08:29:04.191Z,6.37
2024-02-19T08:31:30.985Z,6.37
2024-02-19T08:33:58.184Z,6.36
2024-02-19T08:36:24.892Z,6.40
2024-02-19T08:38:54.471Z,6.40
2024-02-19T08:41:21.334Z,6.50
2024-02-19T08:43:48.373Z,6.64
2024-02-19T08:46:16.231Z,6.66
2024-02-19T08:48:43.723Z,6.67
2024-02-19T08:51:10.197Z,6.76
2024-02-19T08:53:36.834Z,6.86
2024-02-19T08:56:03.607Z,6.87
2024-02-19T08:58:30.224Z,6.81
2024-02-19T09:00:56.944Z,6.93
2024-02-19T09:03:23.602Z,6.97
2024-02-19T09:05:50.275Z,7.04
2024-02-19T09:08:16.890Z,7.06
2024-02-19T09:10:43.569Z,7.08
2024-02-19T09:13:11.517Z,7.11
2024-02-19T09:15:38.139Z,7.15
2024-02-19T09:18:04.982Z,7.04
2024-02-19T09:20:31.712Z,7.01
2024-02-19T09:22:58.270Z,6.97
2024-02-19T09:25:25.136Z,6.94
2024-02-19T09:27:51.813Z,7.02
2024-02-19T09:30:18.857Z,7.09
2024-02-19T09:32:45.570Z,7.07
2024-02-19T09:35:12.289Z,7.01
2024-02-19T09:37:38.905Z,7.09
2024-02-19T09:40:06.763Z,7.14
2024-02-19T09:42:34.447Z,7.27
2024-02-19T09:45:01.210Z,7.28
2024-02-19T09:47:28.538Z,7.31
2024-02-19T09:49:56.401Z,7.33
2024-02-19T09:52:28.052Z,7.35
2024-02-19T09:54:56.784Z,7.25
2024-02-19T09:57:23.439Z,7.24
2024-02-19T09:59:50.240Z,7.18
2024-02-19T10:02:17.071Z,7.17
2024-02-19T10:04:43.852Z,7.18
2024-02-19T10:07:10.576Z,7.16
2024-02-19T10:09:37.202Z,7.28
2024-02-19T10:12:03.946Z,7.25
2024-02-19T10:14:30.584Z,7.37
2024-02-19T10:17:00.595Z,7.31
2024-02-19T10:19:27.475Z,7.27
2024-02-19T10:21:54.605Z,7.35
2024-02-19T10:24:21.208Z,7.43
2024-02-19T10:26:47.942Z,7.38
2024-02-19T10:29:14.483Z,7.37
2024-02-19T10:31:41.312Z,7.36
2024-02-19T10:34:10.977Z,7.50
2024-02-19T10:36:38.111Z,7.46
2024-02-19T10:39:05.147Z,7.46
2024-02-19T10:41:32.029Z,7.52
2024-02-19T10:43:58.693Z,7.44
2024-02-19T10:46:25.981Z,7.46
2024-02-19T10:48:53.126Z,7.48
2024-02-19T10:51:21.155Z,7.49
2024-02-19T10:53:48.057Z,7.48
2024-02-19T10:56:19.882Z,7.54
2024-02-19T10:59:05.465Z,7.63
2024-02-19T11:01:41.875Z,7.63
2024-02-19T11:04:26.380Z,7.64
2024-02-19T11:06:55.127Z,7.63
2024-02-19T11:09:28.927Z,7.59
2024-02-19T11:11:58.925Z,7.52
2024-02-19T11:14:28.339Z,7.49
2024-02-19T11:16:55.120Z,7.47
2024-02-19T11:19:22.162Z,7.51
2024-02-19T11:21:49.158Z,7.46
2024-02-19T11:24:16.033Z,7.48
2024-02-19T11:26:43.821Z,7.48
2024-02-19T11:29:17.364Z,7.62
2024-02-19T11:31:44.103Z,7.65
2024-02-19T11:34:20.878Z,7.64
2024-02-19T11:36:47.943Z,7.60
2024-02-19T11:39:14.624Z,7.50
2024-02-19T11:41:42.001Z,7.50
2024-02-19T11:44:09.060Z,7.56
2024-02-19T11:46:35.857Z,7.50
2024-02-19T11:49:02.648Z,7.44
2024-02-19T11:51:29.910Z,7.43
2024-02-19T11:53:56.838Z,7.44
2024-02-19T11:56:23.628Z,7.46
2024-02-19T11:58:50.977Z,7.47
2024-02-19T12:01:23.574Z,7.47
2024-02-19T12:03:52.088Z,7.52
2024-02-19T12:06:18.744Z,7.50
2024-02-19T12:08:45.546Z,7.53
2024-02-19T12:11:12.673Z,7.59
2024-02-19T12:13:39.421Z,7.62
2024-02-19T12:16:06.491Z,7.64
2024-02-19T12:18:33.266Z,7.66
2024-02-19T12:21:00.091Z,7.70
2024-02-19T12:23:27.088Z,7.65
2024-02-19T12:25:53.937Z,7.65
2024-02-19T12:28:20.569Z,7.66
2024-02-19T12:30:47.306Z,7.70
2024-02-19T12:33:14.173Z,7.72
2024-02-19T12:35:41.958Z,7.74
2024-02-19T12:38:08.961Z,7.72
2024-02-19T12:40:35.768Z,7.70
2024-02-19T12:43:02.517Z,7.71
2024-02-19T12:45:29.223Z,7.69
2024-02-19T12:47:56.015Z,7.65
2024-02-19T12:50:22.762Z,7.71
2024-02-19T12:52:49.617Z,7.65
2024-02-19T12:55:19.338Z,7.69
2024-02-19T12:57:46.841Z,7.73
2024-02-19T13:00:13.796Z,7.68
2024-02-19T13:02:40.659Z,7.65
2024-02-19T13:05:07.854Z,7.61
2024-02-19T13:07:34.640Z,7.69
2024-02-19T13:10:01.518Z,7.69
2024-02-19T13:12:28.266Z,7.74
2024-02-19T13:14:54.866Z,7.77
2024-02-19T13:17:26.225Z,7.76
2024-02-19T13:19:59.238Z,7.67
2024-02-19T13:22:26.074Z,7.60
2024-02-19T13:24:52.741Z,7.60
2024-02-19T13:27:19.370Z,7.53
2024-02-19T13:29:45.951Z,7.50
2024-02-19T13:32:12.746Z,7.56
2024-02-19T13:34:39.469Z,7.60
2024-02-19T13:37:06.210Z,7.58
2024-02-19T13:39:34.483Z,7.63
2024-02-19T13:42:01.346Z,7.62
2024-02-19T13:44:28.160Z,7.62
2024-02-19T13:46:54.825Z,7.63
2024-02-19T13:49:21.692Z,7.59
2024-02-19T13:51:48.400Z,7.64
2024-02-19T13:54:15.046Z,7.67
2024-02-19T13:56:41.719Z,7.68
2024-02-19T13:59:08.307Z,7.65
2024-02-19T14:01:36.272Z,7.61
2024-02-19T14:04:04.605Z,7.62
2024-02-19T14:06:31.402Z,7.63
2024-02-19T14:08:58.171Z,7.64
2024-02-19T14:11:24.935Z,7.56
2024-02-19T14:13:58.156Z,7.55
2024-02-19T14:16:28.967Z,7.61
2024-02-19T14:18:55.980Z,7.59
2024-02-19T14:21:22.729Z,7.58
2024-02-19T14:23:49.347Z,7.60
2024-02-19T14:26:15.966Z,7.53
2024-02-19T14:28:42.557Z,7.56
2024-02-19T14:31:09.280Z,7.57
2024-02-19T14:33:35.917Z,7.52
2024-02-19T14:36:02.571Z,7.59
2024-02-19T14:38:29.306Z,7.63
2024-02-19T14:40:55.995Z,7.68
2024-02-19T14:43:22.654Z,7.67
2024-02-19T14:45:49.379Z,7.66
2024-02-19T14:48:16.301Z,7.60
2024-02-19T14:50:43.201Z,7.61
2024-02-19T14:53:10.220Z,7.55
2024-02-19T14:55:36.948Z,7.56
2024-02-19T14:58:05.842Z,7.55
2024-02-19T15:00:32.481Z,7.53
2024-02-19T15:02:59.082Z,7.50
2024-02-19T15:05:25.928Z,7.45
2024-02-19T15:07:52.867Z,7.38
2024-02-19T15:10:19.631Z,7.43
2024-02-19T15:12:46.465Z,7.34
2024-02-19T15:15:15.106Z,7.36
2024-02-19T15:17:41.872Z,7.43
2024-02-19T15:20:09.401Z,7.40
2024-02-19T15:22:36.031Z,7.40
2024-02-19T15:25:02.735Z,7.33
2024-02-19T15:27:29.334Z,7.30
2024-02-19T15:29:56.425Z,7.30
2024-02-19T15:32:22.972Z,7.31
2024-02-19T15:34:50.105Z,7.28
2024-02-19T15:37:17.976Z,7.20
2024-02-19T15:39:44.844Z,7.23
2024-02-19T15:42:12.231Z,7.27
2024-02-19T15:44:38.920Z,7.29
2024-02-19T15:47:05.596Z,7.34
2024-02-19T15:49:32.398Z,7.36
2024-02-19T15:51:59.068Z,7.37
2024-02-19T15:54:25.701Z,7.32
2024-02-19T15:56:52.329Z,7.29
2024-02-19T15:59:19.042Z,7.23
2024-02-19T16:01:45.820Z,7.27
2024-02-19T16:04:12.718Z,7.26
2024-02-19T16:06:39.354Z,7.23
2024-02-19T16:09:06.229Z,7.25
2024-02-19T16:11:33.023Z,7.23
2024-02-19T16:13:59.692Z,7.26
2024-02-19T16:16:26.392Z,7.28
2024-02-19T16:18:53.110Z,7.31
2024-02-19T16:21:19.681Z,7.28
2024-02-19T16:23:46.307Z,7.26
2024-02-19T16:26:12.934Z,7.22
2024-02-19T16:28:39.850Z,7.27
2024-02-19T16:31:06.535Z,7.28
2024-02-19T16:33:33.310Z,7.20
2024-02-19T16:35:59.995Z,7.16
2024-02-19T16:38:26.606Z,7.19
2024-02-19T16:40:53.816Z,7.32
2024-02-19T16:43:20.692Z,7.34
2024-02-19T16:45:47.814Z,7.35
2024-02-19T16:48:14.518Z,7.35
2024-02-19T16:50:41.136Z,7.37
2024-02-19T16:53:07.789Z,7.46
2024-02-19T16:55:34.486Z,7.40
2024-02-19T16:58:01.232Z,7.39
2024-02-19T17:00:27.889Z,7.42
2024-02-19T17:02:54.404Z,7.40
2024-02-19T17:05:21.425Z,7.42
2024-02-19T17:07:48.452Z,7.39
2024-02-19T17:10:15.359Z,7.37
2024-02-19T17:12:43.795Z,7.48
2024-02-19T17:15:11.124Z,7.37
2024-02-19T17:17:37.767Z,7.43
2024-02-19T17:20:04.773Z,7.39
2024-02-19T17:22:31.548Z,7.41
2024-02-19T17:24:58.246Z,7.45
2024-02-19T17:27:24.990Z,7.43
2024-02-19T17:29:51.575Z,7.43
2024-02-19T17:32:18.202Z,7.43
2024-02-19T17:34:44.804Z,7.44
2024-02-19T17:37:11.433Z,7.43
2024-02-19T17:39:38.096Z,7.46
2024-02-19T17:42:05.025Z,7.44
2024-02-19T17:44:31.688Z,7.41
2024-02-19T17:46:58.352Z,7.38
2024-02-19T17:49:25.095Z,7.44
2024-02-19T17:51:51.818Z,7.35
2024-02-19T17:54:18.395Z,7.34
2024-02-19T17:56:45.071Z,7.37
2024-02-19T17:59:12.187Z,7.35
2024-02-19T18:01:39.674Z,7.35
2024-02-19T18:04:06.358Z,7.35
2024-02-19T18:06:33.636Z,7.32
2024-02-19T18:09:01.740Z,7.30
2024-02-19T18:11:28.410Z,7.29
2024-02-19T18:13:54.995Z,7.26
2024-02-19T18:16:22.581Z,7.27
2024-02-19T18:18:49.458Z,7.37
2024-02-19T18:21:16.302Z,7.39
2024-02-19T18:23:43.128Z,7.34
2024-02-19T18:26:10.196Z,7.36
2024-02-19T18:28:36.847Z,7.36
2024-02-19T18:31:04.119Z,7.36
2024-02-19T18:33:33.516Z,7.38
2024-02-19T18:36:00.111Z,7.36
2024-02-19T18:38:26.817Z,7.29
2024-02-19T18:40:53.371Z,7.26
2024-02-19T18:43:20.027Z,7.24
2024-02-19T18:45:46.654Z,7.16
2024-02-19T18:48:13.266Z,7.12
2024-02-19T18:50:40.260Z,7.08
2024-02-19T18:53:07.043Z,7.10
2024-02-19T18:55:33.715Z,7.22
2024-02-19T18:58:00.380Z,7.27
2024-02-19T19:00:27.078Z,7.15
2024-02-19T19:02:53.752Z,7.05
2024-02-19T19:05:20.420Z,7.02
2024-02-19T19:07:47.080Z,6.99
2024-02-19T19:10:13.735Z,6.97
2024-02-19T19:12:40.474Z,6.97
2024-02-19T19:15:07.660Z,6.95
2024-02-19T19:17:34.898Z,7.01
2024-02-19T19:20:01.893Z,7.06
2024-02-19T19:22:28.689Z,7.15
2024-02-19T19:24:55.305Z,7.18
2024-02-19T19:27:21.902Z,7.17
2024-02-19T19:29:48.544Z,7.19
2024-02-19T19:32:15.104Z,7.15
2024-02-19T19:34:41.805Z,7.04
2024-02-19T19:37:08.444Z,6.98
2024-02-19T19:39:35.172Z,7.00
2024-02-19T19:42:01.794Z,6.98
2024-02-19T19:44:28.359Z,6.99
2024-02-19T19:46:54.963Z,6.93
2024-02-19T19:49:21.794Z,6.92
2024-02-19T19:51:48.613Z,6.86
2024-02-19T19:54:15.347Z,6.82
2024-02-19T19:56:42.025Z,6.78
2024-02-19T19:59:09.242Z,6.73
2024-02-19T20:01:36.824Z,6.67
2024-02-19T20:04:04.575Z,6.71
2024-02-19T20:06:31.339Z,6.70
2024-02-19T20:08:58.597Z,6.69
2024-02-19T20:11:25.256Z,6.68
2024-02-19T20:13:51.898Z,6.65
2024-02-19T20:16:18.488Z,6.67
2024-02-19T20:18:45.248Z,6.64
2024-02-19T20:21:12.697Z,6.65
2024-02-19T20:23:39.145Z,6.60
2024-02-19T20:26:08.930Z,6.55
2024-02-19T20:28:35.652Z,6.51
2024-02-19T20:31:02.810Z,6.53
2024-02-19T20:33:30.049Z,6.50
2024-02-19T20:35:56.755Z,6.53
2024-02-19T20:38:23.865Z,6.53
2024-02-19T20:40:50.992Z,6.52
2024-02-19T20:43:17.926Z,6.50
2024-02-19T20:45:44.530Z,6.51
2024-02-19T20:48:11.318Z,6.50
2024-02-19T20:50:39.273Z,6.50
2024-02-19T20:53:06.218Z,6.51
2024-02-19T20:55:33.354Z,6.51
2024-02-19T20:58:00.104Z,6.51
2024-02-19T21:00:26.771Z,6.53
2024-02-19T21:02:53.475Z,6.59
2024-02-19T21:05:20.155Z,6.61
2024-02-19T21:07:46.815Z,6.60
2024-02-19T21:10:13.789Z,6.60
2024-02-19T21:12:43.871Z,6.59
2024-02-19T21:15:10.761Z,6.66
2024-02-19T21:17:37.448Z,6.69
2024-02-19T21:20:04.640Z,6.68
2024-02-19T21:22:31.343Z,6.61
2024-02-19T21:24:59.100Z,6.64
2024-02-19T21:27:26.975Z,6.65
2024-02-19T21:29:54.316Z,6.61
2024-02-19T21:32:21.118Z,6.66
2024-02-19T21:34:48.270Z,6.75
2024-02-19T21:37:15.225Z,6.75
2024-02-19T21:39:41.841Z,6.84
2024-02-19T21:42:08.522Z,6.84
2024-02-19T21:44:35.343Z,6.83
2024-02-19T21:47:01.969Z,6.83
2024-02-19T21:49:28.640Z,6.83
2024-02-19T21:51:55.841Z,6.82
2024-02-19T21:54:22.580Z,6.87
2024-02-19T21:56:49.215Z,6.86
2024-02-19T21:59:15.780Z,6.84
2024-02-19T22:01:42.477Z,6.86
2024-02-19T22:04:09.163Z,6.86
2024-02-19T22:06:36.028Z,6.83
2024-02-19T22:09:02.713Z,6.84
2024-02-19T22:11:29.487Z,6.83
2024-02-19T22:13:56.979Z,6.84
2024-02-19T22:16:23.548Z,6.81
2024-02-19T22:18:50.270Z,6.78
2024-02-19T22:21:16.991Z,6.75
2024-02-19T22:23:43.660Z,6.74
2024-02-19T22:26:10.329Z,6.69
2024-02-19T22:28:37.050Z,6.72
2024-02-19T22:31:03.863Z,6.70
2024-02-19T22:33:30.844Z,6.72
2024-02-19T22:35:57.498Z,6.72
2024-02-19T22:38:24.186Z,6.69
2024-02-19T22:40:50.763Z,6.66
2024-02-19T22:43:17.411Z,6.71
2024-02-19T22:45:43.989Z,6.65
2024-02-19T22:48:10.865Z,6.58
2024-02-19T22:50:38.561Z,6.56
2024-02-19T22:53:06.028Z,6.57
2024-02-19T22:55:32.684Z,6.53
2024-02-19T22:57:59.373Z,6.55
2024-02-19T23:00:26.256Z,6.35
2024-02-19T23:02:54.610Z,6.28
2024-02-19T23:05:21.498Z,6.35
2024-02-19T23:07:48.288Z,6.28
2024-02-19T23:10:15.050Z,6.18
2024-02-19T23:12:41.701Z,6.08
2024-02-19T23:15:08.727Z,5.98
2024-02-19T23:17:35.384Z,5.97
2024-02-19T23:20:02.201Z,6.09
2024-02-19T23:22:28.876Z,6.01
2024-02-19T23:24:55.590Z,5.87
2024-02-19T23:27:22.201Z,5.79
2024-02-19T23:29:48.945Z,5.64
2024-02-19T23:32:15.647Z,5.55
2024-02-19T23:34:42.309Z,5.44
2024-02-19T23:37:09.121Z,5.28
2024-02-19T23:39:38.070Z,5.17
2024-02-19T23:42:05.432Z,5.23
2024-02-19T23:44:32.129Z,5.25
2024-02-19T23:46:58.786Z,5.31
2024-02-19T23:49:25.530Z,5.32
2024-02-19T23:51:52.285Z,5.19
2024-02-19T23:54:18.959Z,5.13
2024-02-19T23:56:45.588Z,5.13
2024-02-19T23:59:12.143Z,5.13
